Time;durP1;ratioP1;P1;durP2;ratioP2;P2;SDS_P1;SDS_P2;PMS_P1;PMS_P2;Temp;Humidity;BMP_temperature;BMP_pressure;BME280_temperature;BME280_humidity;BME280_pressure;Samples;Min_cycle;Max_cycle;Signal;HPM_P1;HPM_P2
2021/07/19 00:02:18;;;;;;;19.58;11.20;;;20.90;75.50;;;;;;5055590;28;20036;-81
2021/07/19 00:04:46;;;;;;;16.00;10.13;;;20.90;75.60;;;;;;5055514;28;20037;-81
2021/07/19 00:07:13;;;;;;;14.75;10.05;;;20.90;75.50;;;;;;5054430;28;20479;-76
2021/07/19 00:09:44;;;;;;;20.98;11.88;;;20.90;75.50;;;;;;5055648;28;20142;-78
2021/07/19 00:12:11;;;;;;;20.40;11.52;;;20.90;75.50;;;;;;5055503;28;20025;-82
2021/07/19 00:14:37;;;;;;;18.05;10.98;;;20.90;75.50;;;;;;5055555;28;20542;-82
2021/07/19 00:17:03;;;;;;;16.58;11.18;;;20.90;75.60;;;;;;5054248;28;20168;-79
2021/07/19 00:19:29;;;;;;;15.88;8.90;;;20.80;75.60;;;;;;5055478;28;20032;-82
2021/07/19 00:21:55;;;;;;;18.08;11.68;;;20.90;75.70;;;;;;5054136;28;20025;-83
2021/07/19 00:24:21;;;;;;;15.82;9.80;;;20.90;76.00;;;;;;5054223;28;20025;-79
2021/07/19 00:26:47;;;;;;;14.43;9.55;;;20.90;76.10;;;;;;5055099;28;20360;-84
2021/07/19 00:29:13;;;;;;;12.63;8.35;;;21.00;76.10;;;;;;5054921;28;20500;-82
2021/07/19 00:31:39;;;;;;;16.13;9.82;;;21.00;76.10;;;;;;5054106;28;20021;-79
2021/07/19 00:34:05;;;;;;;18.85;9.55;;;21.00;75.90;;;;;;5057283;28;20094;-82
2021/07/19 00:36:31;;;;;;;15.13;8.38;;;21.10;75.80;;;;;;5055095;28;20486;-80
2021/07/19 00:38:58;;;;;;;11.90;9.50;;;21.10;75.60;;;;;;5054871;28;20056;-80
2021/07/19 00:41:24;;;;;;;12.80;9.75;;;21.20;75.40;;;;;;5054668;28;20021;-80
2021/07/19 00:43:50;;;;;;;10.50;7.63;;;21.10;75.20;;;;;;5054897;28;20420;-81
2021/07/19 00:46:17;;;;;;;14.63;9.23;;;21.20;75.20;;;;;;5055298;28;20075;-81
2021/07/19 00:48:43;;;;;;;10.02;8.35;;;21.10;75.10;;;;;;5053491;28;20600;-80
2021/07/19 00:51:10;;;;;;;16.27;8.30;;;21.10;75.10;;;;;;5054850;28;20463;-80
2021/07/19 00:53:36;;;;;;;15.95;8.07;;;21.10;75.00;;;;;;5053455;28;20032;-82
2021/07/19 00:56:02;;;;;;;12.88;8.25;;;21.10;75.00;;;;;;5054568;28;20021;-81
2021/07/19 00:58:30;;;;;;;10.68;8.13;;;21.10;75.00;;;;;;5053423;28;20025;-83
2021/07/19 01:00:58;;;;;;;9.27;6.95;;;21.00;75.00;;;;;;5054614;28;20083;-83
2021/07/19 01:03:26;;;;;;;9.55;6.60;;;21.00;74.90;;;;;;5054324;28;20489;-81
2021/07/19 01:05:55;;;;;;;9.30;6.78;;;21.00;75.60;;;;;;5054389;28;20025;-80
2021/07/19 01:08:22;;;;;;;11.63;6.28;;;21.00;74.70;;;;;;5053134;28;20025;-81
2021/07/19 01:10:48;;;;;;;10.48;6.13;;;21.00;74.60;;;;;;5053048;28;20021;-80
2021/07/19 01:13:14;;;;;;;11.48;6.75;;;21.00;74.50;;;;;;5053995;28;20028;-81
2021/07/19 01:15:40;;;;;;;10.10;5.85;;;20.90;74.60;;;;;;5054073;28;20137;-82
2021/07/19 01:18:08;;;;;;;7.10;5.30;;;20.90;74.70;;;;;;5052811;28;20154;-81
2021/07/19 01:20:44;;;;;;;7.88;6.70;;;20.90;74.70;;;;;;5053964;28;20048;-79
2021/07/19 01:23:27;;;;;;;6.68;5.32;;;20.90;74.90;;;;;;5053882;28;20024;-77
2021/07/19 01:26:28;;;;;;;10.40;6.78;;;20.90;75.10;;;;;;5052805;28;20029;-84
2021/07/19 01:28:55;;;;;;;10.50;8.13;;;20.90;75.20;;;;;;5053850;28;20013;-79
2021/07/19 01:31:31;;;;;;;14.32;9.10;;;21.00;75.40;;;;;;5053878;28;20530;-78
2021/07/19 01:34:01;;;;;;;14.38;9.70;;;21.00;75.40;;;;;;5053884;28;20032;-84
2021/07/19 01:36:33;;;;;;;13.60;9.90;;;21.00;75.30;;;;;;5052602;28;20075;-85
2021/07/19 01:38:59;;;;;;;21.63;9.50;;;21.00;75.30;;;;;;5053694;28;20025;-80
2021/07/19 01:41:28;;;;;;;17.00;8.75;;;21.00;75.20;;;;;;5053637;28;20024;-80
2021/07/19 01:43:59;;;;;;;14.55;9.15;;;21.10;75.20;;;;;;5053890;28;20079;-83
2021/07/19 01:46:26;;;;;;;26.10;8.60;;;21.00;75.20;;;;;;5057169;28;20036;-79
2021/07/19 01:48:54;;;;;;;11.55;7.60;;;21.00;75.00;;;;;;5064570;28;20382;-77
2021/07/19 01:51:20;;;;;;;11.73;7.97;;;21.00;74.90;;;;;;5057882;28;20032;-85
2021/07/19 01:53:48;;;;;;;11.95;6.70;;;21.00;74.80;;;;;;5052796;28;20067;-82
2021/07/19 01:56:15;;;;;;;9.40;6.38;;;21.00;74.80;;;;;;5053632;28;20028;-77
2021/07/19 01:58:41;;;;;;;10.20;7.65;;;21.00;74.70;;;;;;5053345;28;20021;-85
2021/07/19 02:01:07;;;;;;;11.43;7.38;;;21.00;74.60;;;;;;5053360;28;20020;-80
2021/07/19 02:03:33;;;;;;;9.35;6.85;;;21.00;74.60;;;;;;5052310;28;20029;-85
2021/07/19 02:06:01;;;;;;;9.05;5.63;;;21.00;74.50;;;;;;5053512;28;20028;-82
2021/07/19 02:08:28;;;;;;;7.22;6.20;;;21.00;74.40;;;;;;5059573;28;20043;-84
2021/07/19 02:10:55;;;;;;;8.38;5.80;;;21.00;74.30;;;;;;5072165;28;20027;-77
2021/07/19 02:13:23;;;;;;;9.77;6.55;;;21.00;74.20;;;;;;5073323;28;20090;-83
2021/07/19 02:15:52;;;;;;;10.00;6.13;;;20.90;74.00;;;;;;5073374;28;20024;-85
2021/07/19 02:18:23;;;;;;;9.73;5.65;;;20.90;74.00;;;;;;5072375;28;20107;-84
2021/07/19 02:20:49;;;;;;;6.47;5.10;;;20.90;74.00;;;;;;5073212;28;20104;-79
2021/07/19 02:23:15;;;;;;;6.18;4.97;;;20.80;73.90;;;;;;5074905;28;20521;-83
2021/07/19 02:25:42;;;;;;;6.80;4.88;;;20.80;74.00;;;;;;5077406;28;20031;-81
2021/07/19 02:28:13;;;;;;;7.78;5.65;;;20.80;74.00;;;;;;5076052;28;20047;-79
2021/07/19 02:30:41;;;;;;;6.47;5.22;;;20.80;73.90;;;;;;5076111;28;20083;-82
2021/07/19 02:33:09;;;;;;;7.93;5.88;;;20.80;73.90;;;;;;5076102;28;20032;-80
2021/07/19 02:35:41;;;;;;;11.35;6.43;;;20.70;73.90;;;;;;5077194;28;20500;-83
2021/07/19 02:38:10;;;;;;;11.27;6.95;;;20.70;73.80;;;;;;5077171;28;20428;-81
2021/07/19 02:40:38;;;;;;;13.75;8.25;;;20.60;73.80;;;;;;5075915;28;20031;-84
2021/07/19 02:43:07;;;;;;;8.95;6.50;;;20.60;74.00;;;;;;5075792;28;20508;-79
2021/07/19 02:45:42;;;;;;;10.07;7.03;;;20.50;74.00;;;;;;5076813;28;20470;-80
2021/07/19 02:48:11;;;;;;;10.52;6.85;;;20.50;74.00;;;;;;5076816;28;20112;-82
2021/07/19 02:50:41;;;;;;;9.20;6.40;;;20.50;74.00;;;;;;5076802;28;20041;-76
2021/07/19 02:53:15;;;;;;;11.10;7.35;;;20.50;74.10;;;;;;5075916;28;20107;-78
2021/07/19 02:55:42;;;;;;;14.98;9.13;;;20.50;74.20;;;;;;5076854;28;20463;-81
2021/07/19 02:58:15;;;;;;;17.90;10.27;;;20.50;74.40;;;;;;5068863;28;20029;-79
2021/07/19 03:00:42;;;;;;;17.33;9.75;;;20.40;74.60;;;;;;5056795;28;20108;-80
2021/07/19 03:03:14;;;;;;;16.42;8.00;;;20.40;74.80;;;;;;5055655;28;20025;-81
2021/07/19 03:05:46;;;;;;;20.38;8.40;;;20.50;74.80;;;;;;5055562;28;20116;-78
2021/07/19 03:08:13;;;;;;;12.57;8.75;;;20.50;74.80;;;;;;5056687;28;20021;-78
2021/07/19 03:10:41;;;;;;;12.05;8.20;;;20.50;74.70;;;;;;5056563;28;20025;-76
2021/07/19 03:13:11;;;;;;;13.40;8.40;;;20.50;74.70;;;;;;5056563;28;20099;-81
2021/07/19 03:15:39;;;;;;;16.63;9.68;;;20.50;74.70;;;;;;5056643;28;20136;-85
2021/07/19 03:18:08;;;;;;;11.10;7.95;;;20.50;74.70;;;;;;5056447;28;20078;-78
2021/07/19 03:20:36;;;;;;;8.32;6.78;;;20.50;74.80;;;;;;5057235;28;20505;-78
2021/07/19 03:23:10;;;;;;;11.07;7.88;;;20.50;74.80;;;;;;5056304;28;20048;-76
2021/07/19 03:25:36;;;;;;;11.07;8.15;;;20.50;74.80;;;;;;5055222;28;20033;-80
2021/07/19 03:28:02;;;;;;;11.93;8.23;;;20.60;74.80;;;;;;5054923;28;20075;-77
2021/07/19 03:30:28;;;;;;;12.48;8.20;;;20.60;74.80;;;;;;5054833;28;20021;-79
2021/07/19 03:32:55;;;;;;;12.40;8.80;;;20.60;74.70;;;;;;5056210;28;20482;-80
2021/07/19 03:35:24;;;;;;;13.18;8.68;;;20.60;74.70;;;;;;5055017;28;20497;-80
2021/07/19 03:37:51;;;;;;;12.30;7.63;;;20.70;74.70;;;;;;5056035;28;20074;-80
2021/07/19 03:40:22;;;;;;;12.15;7.68;;;20.70;74.80;;;;;;5055937;28;20108;-79
2021/07/19 03:42:49;;;;;;;17.08;8.65;;;20.70;74.80;;;;;;5056075;28;20095;-78
2021/07/19 03:45:17;;;;;;;11.45;7.63;;;20.80;74.50;;;;;;5056026;28;20025;-78
2021/07/19 03:47:45;;;;;;;11.35;8.05;;;20.80;74.50;;;;;;5055637;28;20083;-81
2021/07/19 03:50:11;;;;;;;12.27;8.07;;;20.80;74.40;;;;;;5054606;28;20045;-81
2021/07/19 03:52:39;;;;;;;14.32;10.43;;;20.80;74.40;;;;;;5055750;28;20103;-82
2021/07/19 03:55:09;;;;;;;12.40;9.27;;;20.80;74.00;;;;;;5055621;28;20490;-78
2021/07/19 03:57:36;;;;;;;11.15;7.95;;;20.80;74.00;;;;;;5055338;28;20455;-81
2021/07/19 04:00:07;;;;;;;11.55;8.50;;;20.90;74.20;;;;;;5055760;28;20028;-84
2021/07/19 04:02:35;;;;;;;11.68;8.52;;;20.90;74.10;;;;;;5054353;28;20546;-83
2021/07/19 04:05:07;;;;;;;11.15;8.30;;;21.00;74.00;;;;;;5055404;28;20021;-84
2021/07/19 04:07:36;;;;;;;15.85;8.65;;;21.00;73.90;;;;;;5054385;28;20043;-81
2021/07/19 04:10:08;;;;;;;10.75;7.60;;;21.00;74.00;;;;;;5054287;28;20371;-78
2021/07/19 04:12:35;;;;;;;14.65;7.68;;;21.00;73.80;;;;;;5055446;28;20532;-82
2021/07/19 04:15:02;;;;;;;14.52;8.18;;;21.10;73.80;;;;;;5055683;28;20075;-79
2021/07/19 04:17:30;;;;;;;10.88;8.00;;;21.10;73.50;;;;;;5054992;28;20032;-84
2021/07/19 04:19:57;;;;;;;8.95;7.30;;;21.10;73.00;;;;;;5054811;28;20025;-83
2021/07/19 04:22:24;;;;;;;10.43;7.70;;;21.10;72.70;;;;;;5054338;28;20029;-82
2021/07/19 04:24:50;;;;;;;8.73;7.20;;;21.10;72.30;;;;;;5055546;28;20104;-77
2021/07/19 04:27:17;;;;;;;10.05;7.55;;;21.00;72.30;;;;;;5055007;28;20447;-77
2021/07/19 04:29:49;;;;;;;10.85;8.27;;;21.00;72.30;;;;;;5055057;28;20025;-85
2021/07/19 04:32:18;;;;;;;15.40;8.20;;;21.00;72.40;;;;;;5055370;28;20312;-81
2021/07/19 04:34:44;;;;;;;10.27;7.53;;;21.00;72.70;;;;;;5055165;28;20121;-76
2021/07/19 04:37:13;;;;;;;10.80;6.95;;;21.00;72.90;;;;;;5055328;28;20517;-82
2021/07/19 04:39:40;;;;;;;7.70;6.47;;;21.00;73.10;;;;;;5055609;28;20029;-83
2021/07/19 04:42:06;;;;;;;9.93;7.75;;;21.00;73.20;;;;;;5055453;28;20021;-80
2021/07/19 04:44:33;;;;;;;8.43;6.60;;;21.00;73.10;;;;;;5055985;28;20025;-82
2021/07/19 04:46:59;;;;;;;8.90;7.05;;;21.00;73.20;;;;;;5056667;28;20029;-80
2021/07/19 04:49:26;;;;;;;9.60;7.40;;;21.00;73.00;;;;;;5071453;28;20589;-78
2021/07/19 04:51:52;;;;;;;11.52;7.63;;;21.00;73.10;;;;;;5076787;28;20070;-78
2021/07/19 04:54:28;;;;;;;10.95;7.68;;;21.00;73.10;;;;;;5058344;28;20040;-81
2021/07/19 04:56:56;;;;;;;9.68;7.15;;;21.00;73.10;;;;;;5071028;28;20115;-82
2021/07/19 04:59:23;;;;;;;15.88;6.45;;;21.10;74.10;;;;;;5054730;28;20491;-83
2021/07/19 05:01:52;;;;;;;8.88;7.38;;;21.10;73.40;;;;;;5053475;28;20043;-79
2021/07/19 05:04:24;;;;;;;8.90;6.50;;;21.20;73.30;;;;;;5054666;28;20092;-77
2021/07/19 05:06:52;;;;;;;13.13;7.15;;;21.10;73.00;;;;;;5053447;28;20052;-80
2021/07/19 05:09:19;;;;;;;10.20;6.07;;;21.20;73.20;;;;;;5054633;28;20045;-81
2021/07/19 05:11:47;;;;;;;9.98;6.82;;;21.30;73.30;;;;;;5054089;28;20037;-83
2021/07/19 05:14:14;;;;;;;18.42;6.95;;;21.30;73.30;;;;;;5069436;28;20116;-79
2021/07/19 05:16:41;;;;;;;13.15;8.00;;;21.40;72.80;;;;;;5054131;28;20471;-81
2021/07/19 05:19:09;;;;;;;8.60;6.38;;;21.40;72.10;;;;;;5066818;28;20115;-77
2021/07/19 05:21:36;;;;;;;9.38;6.85;;;21.50;72.60;;;;;;5071910;28;20100;-80
2021/07/19 05:24:02;;;;;;;11.38;7.40;;;21.60;72.50;;;;;;5052882;28;20108;-80
2021/07/19 05:26:28;;;;;;;9.48;5.82;;;21.70;71.80;;;;;;5065979;28;20099;-81
2021/07/19 05:28:56;;;;;;;13.95;6.63;;;21.70;72.20;;;;;;5072960;28;20103;-84
2021/07/19 05:31:23;;;;;;;9.80;6.95;;;21.80;71.80;;;;;;5073755;28;20024;-83
2021/07/19 05:33:49;;;;;;;9.55;6.38;;;21.90;72.20;;;;;;5074021;28;20020;-80
2021/07/19 05:36:14;;;;;;;11.63;6.47;;;22.00;72.50;;;;;;5061040;28;20610;-80
2021/07/19 05:38:41;;;;;;;8.65;6.22;;;22.10;71.70;;;;;;5068442;28;20025;-78
2021/07/19 05:41:11;;;;;;;9.75;6.90;;;22.30;72.10;;;;;;5072008;28;20070;-77
2021/07/19 05:43:37;;;;;;;9.38;6.40;;;22.30;70.90;;;;;;5052540;28;20474;-80
2021/07/19 05:46:04;;;;;;;10.20;6.32;;;22.50;70.30;;;;;;5053730;28;20417;-77
2021/07/19 05:48:29;;;;;;;8.70;6.05;;;22.50;68.70;;;;;;5053393;28;20049;-82
2021/07/19 05:50:57;;;;;;;11.90;6.25;;;22.50;68.60;;;;;;5053388;28;20073;-80
2021/07/19 05:53:23;;;;;;;9.02;6.07;;;22.60;68.50;;;;;;5053620;28;20043;-81
2021/07/19 05:55:49;;;;;;;9.35;6.22;;;22.60;68.40;;;;;;5053609;28;20071;-80
2021/07/19 05:58:18;;;;;;;7.75;5.72;;;22.70;69.10;;;;;;5052869;28;20421;-82
2021/07/19 06:00:45;;;;;;;10.73;5.18;;;22.70;69.20;;;;;;5053547;28;20363;-82
2021/07/19 06:03:11;;;;;;;6.35;5.57;;;22.70;69.30;;;;;;5052236;28;20028;-81
2021/07/19 06:05:37;;;;;;;10.00;5.93;;;22.70;69.30;;;;;;5053617;28;20029;-82
2021/07/19 06:08:06;;;;;;;12.52;5.47;;;22.80;69.30;;;;;;5053412;28;20017;-80
2021/07/19 06:10:32;;;;;;;6.70;5.38;;;22.80;68.80;;;;;;5052166;28;20508;-77
2021/07/19 06:12:57;;;;;;;7.90;5.55;;;22.90;69.20;;;;;;5053336;28;20029;-77
2021/07/19 06:15:24;;;;;;;7.18;5.65;;;22.90;68.50;;;;;;5053546;28;20028;-83
2021/07/19 06:17:50;;;;;;;7.45;5.45;;;22.90;68.60;;;;;;5051994;28;20439;-83
2021/07/19 06:20:19;;;;;;;9.15;5.63;;;22.90;69.00;;;;;;5053298;28;20027;-77
2021/07/19 06:22:46;;;;;;;9.20;5.97;;;23.00;69.10;;;;;;5063237;28;20073;-82
2021/07/19 06:25:14;;;;;;;9.60;6.07;;;23.00;68.30;;;;;;5065319;28;20066;-77
2021/07/19 06:27:42;;;;;;;7.13;5.85;;;23.00;67.70;;;;;;5053536;28;20110;-81
2021/07/19 06:30:10;;;;;;;11.23;5.00;;;23.00;68.20;;;;;;5051989;28;20383;-77
2021/07/19 06:32:36;;;;;;;12.00;5.90;;;23.00;68.10;;;;;;5059025;28;20025;-79
2021/07/19 06:35:02;;;;;;;7.82;5.65;;;23.00;67.50;;;;;;5072150;28;20052;-81
2021/07/19 06:37:28;;;;;;;8.05;6.05;;;23.10;67.40;;;;;;5073652;28;20024;-77
2021/07/19 06:39:54;;;;;;;7.97;5.57;;;23.10;66.90;;;;;;5073572;28;20024;-79
2021/07/19 06:42:23;;;;;;;8.00;5.22;;;23.00;66.70;;;;;;5067794;28;20025;-79
2021/07/19 06:44:52;;;;;;;11.75;5.03;;;23.00;66.90;;;;;;5054034;28;20470;-81
2021/07/19 06:47:18;;;;;;;13.95;5.13;;;23.00;66.20;;;;;;5053979;28;20112;-79
2021/07/19 06:49:44;;;;;;;7.75;4.70;;;23.00;66.70;;;;;;5069650;28;20037;-76
2021/07/19 06:52:10;;;;;;;5.80;4.85;;;22.90;66.60;;;;;;5053050;28;20506;-76
2021/07/19 06:54:36;;;;;;;5.35;4.85;;;22.90;66.70;;;;;;5052968;28;20474;-79
2021/07/19 06:57:01;;;;;;;6.85;4.80;;;22.90;67.40;;;;;;5051664;28;20040;-79
2021/07/19 06:59:27;;;;;;;7.82;5.38;;;23.00;67.70;;;;;;5061060;28;20036;-78
2021/07/19 07:01:53;;;;;;;8.60;5.03;;;23.00;67.10;;;;;;5060196;28;20021;-81
2021/07/19 07:04:18;;;;;;;6.32;4.88;;;23.00;67.60;;;;;;5051322;28;20490;-82
2021/07/19 07:06:44;;;;;;;4.80;4.28;;;23.10;68.00;;;;;;5052888;28;20029;-79
2021/07/19 07:09:10;;;;;;;11.07;4.82;;;23.10;68.30;;;;;;5055220;28;20018;-79
2021/07/19 07:11:36;;;;;;;6.05;4.70;;;23.20;67.90;;;;;;5055364;28;20025;-80
2021/07/19 07:14:02;;;;;;;7.38;4.30;;;23.30;68.10;;;;;;5056357;28;20021;-77
2021/07/19 07:16:28;;;;;;;5.00;4.03;;;23.30;68.20;;;;;;5059771;28;20107;-82
2021/07/19 07:18:55;;;;;;;9.63;4.60;;;23.40;67.80;;;;;;5074653;28;20024;-75
2021/07/19 07:21:21;;;;;;;11.20;4.38;;;23.40;67.60;;;;;;5070417;28;20119;-75
2021/07/19 07:23:47;;;;;;;7.43;4.03;;;23.50;67.50;;;;;;5060074;28;20032;-77
2021/07/19 07:26:13;;;;;;;5.53;3.80;;;23.60;67.40;;;;;;5054963;28;20028;-77
2021/07/19 07:28:39;;;;;;;8.32;4.53;;;23.70;66.90;;;;;;5056194;28;20540;-79
2021/07/19 07:31:05;;;;;;;7.65;4.88;;;23.70;67.40;;;;;;5058319;28;20025;-78
2021/07/19 07:33:31;;;;;;;8.07;4.63;;;23.90;66.20;;;;;;5066395;28;20028;-78
2021/07/19 07:35:56;;;;;;;7.25;4.60;;;24.00;65.90;;;;;;5069337;28;20021;-77
2021/07/19 07:38:22;;;;;;;8.57;4.53;;;24.10;64.70;;;;;;5063684;28;20039;-77
2021/07/19 07:40:49;;;;;;;5.47;4.05;;;24.20;65.70;;;;;;5071911;28;20052;-76
2021/07/19 07:43:15;;;;;;;6.30;4.40;;;24.30;65.00;;;;;;5071595;28;20504;-75
2021/07/19 07:45:41;;;;;;;5.25;4.28;;;24.50;64.90;;;;;;5079869;28;20029;-75
2021/07/19 07:48:07;;;;;;;6.88;3.78;;;24.60;64.60;;;;;;5072620;28;20028;-77
2021/07/19 07:50:33;;;;;;;7.22;3.92;;;24.80;64.90;;;;;;5059734;28;20041;-78
2021/07/19 07:52:58;;;;;;;5.07;3.28;;;24.80;63.90;;;;;;5061662;28;20033;-76
2021/07/19 07:55:24;;;;;;;4.68;3.85;;;24.90;64.10;;;;;;5089302;28;20031;-79
2021/07/19 07:57:50;;;;;;;5.28;3.70;;;25.00;63.80;;;;;;5067438;28;20037;-77
2021/07/19 08:00:18;;;;;;;7.88;3.97;;;25.00;64.00;;;;;;5066912;28;20033;-76
2021/07/19 08:02:44;;;;;;;4.03;3.63;;;25.10;62.60;;;;;;5091654;28;20035;-79
2021/07/19 08:05:11;;;;;;;7.88;4.75;;;25.10;63.10;;;;;;5079572;28;20020;-80
2021/07/19 08:07:38;;;;;;;4.60;3.63;;;25.10;63.60;;;;;;5074645;28;20057;-79
2021/07/19 08:10:06;;;;;;;6.95;3.70;;;25.20;62.60;;;;;;5068120;28;20456;-78
2021/07/19 08:12:33;;;;;;;7.25;4.32;;;25.20;63.80;;;;;;5071192;28;20502;-80
2021/07/19 08:14:59;;;;;;;5.75;3.85;;;25.20;63.50;;;;;;5079410;28;20024;-81
2021/07/19 08:17:25;;;;;;;6.85;4.25;;;25.30;63.00;;;;;;5074883;28;20032;-80
2021/07/19 08:19:52;;;;;;;7.78;3.75;;;25.30;62.30;;;;;;5074077;28;20029;-78
2021/07/19 08:22:21;;;;;;;5.63;4.13;;;25.40;63.10;;;;;;5084426;28;20053;-76
2021/07/19 08:24:47;;;;;;;6.75;4.25;;;25.40;62.10;;;;;;5068413;28;20370;-78
2021/07/19 08:27:13;;;;;;;11.73;4.55;;;25.50;62.10;;;;;;5084265;28;20107;-81
2021/07/19 08:29:39;;;;;;;6.97;3.45;;;25.60;62.00;;;;;;5070221;28;20012;-81
2021/07/19 08:32:05;;;;;;;7.00;3.83;;;25.60;62.30;;;;;;5055872;28;20508;-80
2021/07/19 08:34:31;;;;;;;8.48;4.40;;;25.70;61.50;;;;;;5052767;28;20075;-79
2021/07/19 08:36:57;;;;;;;5.57;3.97;;;25.80;61.50;;;;;;5053782;28;20479;-77
2021/07/19 08:39:22;;;;;;;5.68;3.75;;;25.90;61.30;;;;;;5052252;28;20036;-76
2021/07/19 08:41:48;;;;;;;8.07;4.28;;;26.00;62.40;;;;;;5053639;28;20021;-79
2021/07/19 08:44:14;;;;;;;8.00;4.03;;;26.10;60.40;;;;;;5052527;28;20025;-75
2021/07/19 08:46:41;;;;;;;8.57;3.65;;;26.20;60.40;;;;;;5052293;28;20039;-77
2021/07/19 08:49:07;;;;;;;5.40;3.50;;;26.30;59.60;;;;;;5053408;28;20116;-78
2021/07/19 08:51:37;;;;;;;5.78;3.35;;;26.50;60.10;;;;;;5065972;28;20027;-79
2021/07/19 08:54:04;;;;;;;7.85;3.80;;;26.60;60.70;;;;;;5073494;28;20050;-79
2021/07/19 08:56:31;;;;;;;11.35;4.32;;;26.80;61.40;;;;;;5073300;28;20012;-77
2021/07/19 08:58:57;;;;;;;6.43;3.83;;;26.90;59.40;;;;;;5062844;28;20420;-77
2021/07/19 09:01:23;;;;;;;6.60;3.70;;;27.10;60.40;;;;;;5057413;28;20051;-77
2021/07/19 09:03:50;;;;;;;4.70;3.30;;;27.20;61.00;;;;;;5051884;28;20039;-75
2021/07/19 09:06:15;;;;;;;4.60;3.72;;;27.40;60.50;;;;;;5053113;28;20264;-76
2021/07/19 09:08:49;;;;;;;5.72;3.72;;;27.60;60.00;;;;;;5066127;28;20044;-79
2021/07/19 09:11:17;;;;;;;5.00;3.63;;;27.80;59.60;;;;;;5072630;28;20104;-75
2021/07/19 09:14:01;;;;;;;4.03;3.35;;;28.00;59.40;;;;;;5072841;28;20385;-76
2021/07/19 09:16:37;;;;;;;5.95;4.07;;;28.20;59.50;;;;;;5071312;28;20409;-74
2021/07/19 09:19:08;;;;;;;5.40;3.55;;;28.40;58.60;;;;;;5061295;28;20059;-76
2021/07/19 09:21:36;;;;;;;5.35;3.60;;;28.60;57.30;;;;;;5055465;28;20025;-76
2021/07/19 09:24:11;;;;;;;6.57;3.72;;;28.70;57.40;;;;;;5054553;28;20055;-76
2021/07/19 09:26:40;;;;;;;5.35;3.22;;;28.70;55.80;;;;;;5052934;28;20017;-77
2021/07/19 09:29:09;;;;;;;5.28;3.08;;;28.70;56.30;;;;;;5070993;28;20028;-79
2021/07/19 09:31:38;;;;;;;14.93;5.60;;;28.60;56.70;;;;;;5053759;28;20061;-78
2021/07/19 09:34:11;;;;;;;8.68;4.32;;;28.60;54.90;;;;;;5071229;28;20482;-76
2021/07/19 09:36:37;;;;;;;8.55;4.20;;;28.50;55.40;;;;;;5068685;28;20116;-75
2021/07/19 09:39:05;;;;;;;7.10;3.13;;;28.50;56.90;;;;;;5052522;28;20029;-75
2021/07/19 09:41:31;;;;;;;8.20;3.22;;;28.50;56.00;;;;;;5052264;28;20021;-77
2021/07/19 09:43:57;;;;;;;7.50;2.90;;;28.50;57.50;;;;;;5067933;28;20070;-75
2021/07/19 09:46:34;;;;;;;7.05;3.33;;;28.60;57.80;;;;;;5071009;28;20471;-75
2021/07/19 09:49:00;;;;;;;10.10;4.10;;;28.60;56.90;;;;;;5071658;28;20493;-75
2021/07/19 09:51:28;;;;;;;7.03;4.30;;;28.70;56.90;;;;;;5069382;28;20162;-76
2021/07/19 09:53:54;;;;;;;6.43;3.80;;;28.90;57.00;;;;;;5053187;28;20118;-75
2021/07/19 09:56:22;;;;;;;8.90;4.00;;;28.90;56.70;;;;;;5052885;28;20033;-75
2021/07/19 09:58:52;;;;;;;14.50;4.97;;;29.10;56.50;;;;;;5053467;28;20025;-75
2021/07/19 10:01:34;;;;;;;9.68;4.68;;;29.20;56.10;;;;;;5063278;28;20390;-77
2021/07/19 10:04:15;;;;;;;5.15;3.10;;;29.30;54.40;;;;;;5073037;28;20017;-72
2021/07/19 10:06:43;;;;;;;6.90;2.70;;;29.50;54.00;;;;;;5072981;28;20028;-71
2021/07/19 10:09:12;;;;;;;8.13;2.90;;;29.50;53.70;;;;;;5064289;28;20483;-72
2021/07/19 10:11:49;;;;;;;8.35;3.15;;;29.60;53.40;;;;;;5052775;28;20036;-72
2021/07/19 10:14:33;;;;;;;6.05;3.88;;;29.60;52.80;;;;;;5053436;28;20436;-72
2021/07/19 10:17:03;;;;;;;7.95;3.95;;;29.70;52.70;;;;;;5051519;28;20163;-72
2021/07/19 10:19:29;;;;;;;4.18;3.00;;;29.70;52.40;;;;;;5052606;28;20017;-72
2021/07/19 10:21:55;;;;;;;3.40;2.53;;;29.80;53.10;;;;;;5063334;28;20069;-72
2021/07/19 10:24:21;;;;;;;7.78;3.00;;;29.90;52.60;;;;;;5060798;28;20126;-72
2021/07/19 10:26:49;;;;;;;4.47;2.83;;;30.00;52.30;;;;;;5052956;28;20025;-72
2021/07/19 10:29:19;;;;;;;6.10;2.83;;;30.10;51.90;;;;;;5053219;28;20025;-72
2021/07/19 10:31:45;;;;;;;3.33;2.40;;;30.10;50.20;;;;;;5044989;23;20074;-73
2021/07/19 10:34:13;;;;;;;5.82;2.30;;;30.10;50.90;;;;;;5032446;28;20057;-73
2021/07/19 10:37:01;;;;;;;3.75;2.53;;;30.20;51.50;;;;;;5032298;28;20172;-72
2021/07/19 10:39:32;;;;;;;4.68;3.10;;;30.30;51.40;;;;;;5032570;28;20057;-73
2021/07/19 10:42:05;;;;;;;2.45;2.10;;;30.30;51.00;;;;;;5032251;28;20033;-73
2021/07/19 10:44:34;;;;;;;6.18;3.00;;;30.30;51.10;;;;;;5035722;28;20017;-72
2021/07/19 10:47:11;;;;;;;8.52;3.20;;;30.30;50.70;;;;;;5036614;28;20503;-72
2021/07/19 10:49:41;;;;;;;6.57;3.20;;;30.20;49.20;;;;;;5036192;28;20029;-73
2021/07/19 10:52:12;;;;;;;4.47;2.72;;;30.20;51.00;;;;;;5036152;28;20483;-72
2021/07/19 10:54:49;;;;;;;11.27;2.92;;;30.20;51.80;;;;;;5035308;28;20025;-72
2021/07/19 10:57:18;;;;;;;4.63;2.13;;;30.10;52.50;;;;;;5016946;28;20041;-72
2021/07/19 10:59:59;;;;;;;6.07;3.10;;;30.20;52.90;;;;;;5015502;28;20022;-73
2021/07/19 11:02:28;;;;;;;12.32;2.58;;;30.10;53.80;;;;;;5037637;28;20120;-72
2021/07/19 11:04:55;;;;;;;6.65;3.30;;;30.10;53.10;;;;;;5036384;28;20017;-72
2021/07/19 11:07:24;;;;;;;13.63;3.58;;;30.10;52.20;;;;;;5037310;28;20033;-73
2021/07/19 11:09:50;;;;;;;7.05;3.00;;;30.00;52.30;;;;;;5036836;28;20049;-73
2021/07/19 11:12:18;;;;;;;6.25;2.95;;;30.00;51.20;;;;;;5035436;28;20443;-72
2021/07/19 11:14:55;;;;;;;6.47;2.97;;;30.10;50.50;;;;;;5036350;28;20025;-73
2021/07/19 11:17:22;;;;;;;6.57;2.75;;;30.10;49.50;;;;;;5034818;28;20104;-73
2021/07/19 11:19:49;;;;;;;6.95;3.38;;;30.20;49.50;;;;;;5048604;28;20427;-72
2021/07/19 11:22:23;;;;;;;8.15;2.67;;;30.30;50.80;;;;;;5040201;28;20395;-73
2021/07/19 11:24:52;;;;;;;9.75;2.50;;;30.40;49.70;;;;;;5034882;28;20544;-73
2021/07/19 11:27:32;;;;;;;4.85;2.17;;;30.50;47.10;;;;;;5035721;28;20059;-73
2021/07/19 11:30:09;;;;;;;3.85;2.20;;;30.60;48.20;;;;;;5037066;28;20546;-73
2021/07/19 11:32:36;;;;;;;6.22;2.97;;;30.70;48.00;;;;;;5055056;28;20506;-73
2021/07/19 11:35:07;;;;;;;4.78;3.13;;;30.70;47.20;;;;;;5040644;28;20029;-73
2021/07/19 11:37:37;;;;;;;3.85;3.28;;;30.70;46.80;;;;;;5035207;28;20061;-73
2021/07/19 11:40:05;;;;;;;2.53;2.17;;;30.60;45.90;;;;;;5035694;28;20471;-73
2021/07/19 11:42:32;;;;;;;3.45;2.08;;;30.60;46.90;;;;;;5035403;28;20029;-73
2021/07/19 11:45:19;;;;;;;4.72;2.42;;;30.60;46.20;;;;;;5033537;28;20030;-73
2021/07/19 11:47:46;;;;;;;5.65;2.47;;;30.60;48.90;;;;;;5034942;28;20049;-73
2021/07/19 11:50:16;;;;;;;3.05;2.00;;;30.80;48.60;;;;;;5035252;28;20043;-73
2021/07/19 11:52:42;;;;;;;6.07;2.50;;;31.00;48.00;;;;;;5033708;28;20104;-73
2021/07/19 11:55:12;;;;;;;5.32;2.60;;;31.10;47.90;;;;;;5032088;28;20055;-72
2021/07/19 11:57:43;;;;;;;6.75;2.00;;;31.30;44.40;;;;;;5034280;28;20083;-73
2021/07/19 12:00:10;;;;;;;2.40;1.90;;;31.40;44.80;;;;;;5032812;28;20026;-72
2021/07/19 12:02:36;;;;;;;11.10;2.25;;;31.40;43.30;;;;;;5032749;28;20033;-73
2021/07/19 12:05:02;;;;;;;4.65;2.67;;;31.40;45.10;;;;;;5034184;28;20044;-73
2021/07/19 12:07:30;;;;;;;3.53;2.13;;;31.30;43.80;;;;;;5033643;28;20022;-73
2021/07/19 12:10:00;;;;;;;3.78;2.22;;;31.30;44.30;;;;;;5034899;28;20072;-73
2021/07/19 12:12:27;;;;;;;4.18;2.08;;;31.20;44.60;;;;;;5034976;28;20021;-73
2021/07/19 12:14:58;;;;;;;3.72;1.92;;;31.20;45.00;;;;;;5034893;28;20037;-71
2021/07/19 12:17:29;;;;;;;4.38;2.35;;;31.20;45.20;;;;;;5034845;28;20506;-72
2021/07/19 12:19:55;;;;;;;10.65;2.63;;;31.30;44.60;;;;;;5034734;28;20040;-72
2021/07/19 12:22:21;;;;;;;6.18;2.28;;;31.30;46.40;;;;;;5034040;28;20501;-72
2021/07/19 12:24:49;;;;;;;6.68;3.42;;;31.50;45.10;;;;;;5015789;28;20105;-72
2021/07/19 12:27:17;;;;;;;6.60;2.83;;;31.70;43.60;;;;;;5014894;28;20022;-72
2021/07/19 12:29:43;;;;;;;4.28;2.58;;;31.80;44.30;;;;;;5013478;28;20018;-72
2021/07/19 12:32:11;;;;;;;7.72;2.40;;;32.00;44.50;;;;;;5014481;28;20119;-72
2021/07/19 12:34:42;;;;;;;3.63;2.30;;;32.20;42.00;;;;;;5014737;28;20026;-72
2021/07/19 12:37:19;;;;;;;7.22;2.92;;;32.30;43.90;;;;;;5014708;28;20120;-72
2021/07/19 12:39:52;;;;;;;4.75;2.45;;;32.50;44.30;;;;;;5014662;28;20388;-72
2021/07/19 12:42:29;;;;;;;3.63;2.23;;;32.50;44.80;;;;;;5013561;28;20026;-72
2021/07/19 12:44:57;;;;;;;3.60;2.15;;;32.70;44.10;;;;;;5014492;28;20288;-72
2021/07/19 12:47:25;;;;;;;4.43;2.30;;;32.70;43.30;;;;;;5013171;28;20029;-72
2021/07/19 12:49:51;;;;;;;3.35;2.08;;;32.60;42.30;;;;;;5014438;28;20026;-72